Allensville, Ohio
Current Conditions -  °F | °C
As of 11:15 AM on Thursday 23 Oct 2014 (Local Time) from KUNI Reporting Station
Scattered Clouds Scattered Clouds  
Wind Chill:   Ceiling: Unl
Heat Index: 10°   Visibility: 10mi
Dew Point:   Wind: 7mph
Humidity: 76%   Direction: 60°ENE
Pressure: 30.24"   Gusts: NA
Location:  39.2719°N, 82.4596°W
Report Text: KUNI 231515Z AUTO 06006KT 10SM SCT015 10/06 A3024 RMK AO2 T00960055
Loading
Personal Weather Stations






























Interactive Weather Map
Tropical Storm Tracking
New forecast layout! Learn more

10-Day Weather Forecast

Advertisements
Track Severe Weather on mobile